Time;durP1;ratioP1;P1;durP2;ratioP2;P2;SDS_P1;SDS_P2;PMS_P1;PMS_P2;Temp;Humidity;BMP_temperature;BMP_pressure;BME280_temperature;BME280_humidity;BME280_pressure;Samples;Min_cycle;Max_cycle;Signal;HPM_P1;HPM_P2
2022/01/10 00:00:24;;;;;;;32.17;18.80;;;;;;;2.86;72.92;99748.08;1770902;81;21083;-69
2022/01/10 00:02:54;;;;;;;34.33;18.67;;;;;;;2.91;72.85;99758.77;1771353;81;21078;-69
2022/01/10 00:05:22;;;;;;;35.92;20.00;;;;;;;2.92;72.76;99751.14;1771077;81;20992;-69
2022/01/10 00:07:49;;;;;;;34.13;19.77;;;;;;;2.91;72.70;99746.91;1771152;81;21632;-69
2022/01/10 00:10:15;;;;;;;34.23;19.85;;;;;;;2.90;72.66;99755.85;1770980;81;21486;-68
2022/01/10 00:12:44;;;;;;;36.17;20.57;;;;;;;2.89;72.64;99754.22;1771048;81;20941;-69
2022/01/10 00:15:15;;;;;;;34.65;20.12;;;;;;;2.90;72.49;99752.42;1770983;81;21055;-69
2022/01/10 00:17:41;;;;;;;39.35;22.02;;;;;;;2.85;72.40;99751.76;1798669;79;21004;-68
2022/01/10 00:20:13;;;;;;;33.70;20.15;;;;;;;2.82;72.40;99756.96;1775842;80;21553;-69
2022/01/10 00:22:45;;;;;;;33.78;19.40;;;;;;;2.80;72.36;99761.67;1797881;79;21318;-70
2022/01/10 00:25:10;;;;;;;36.65;20.82;;;;;;;2.77;72.27;99773.98;1803093;79;20996;-69
2022/01/10 00:27:37;;;;;;;35.43;19.87;;;;;;;2.69;72.24;99768.22;1798617;79;20996;-69
2022/01/10 00:30:06;;;;;;;37.08;20.72;;;;;;;2.64;72.24;99774.70;1798756;79;20952;-70
2022/01/10 00:32:32;;;;;;;33.10;19.80;;;;;;;2.54;72.28;99781.30;1798739;79;21015;-69
2022/01/10 00:34:59;;;;;;;38.70;21.70;;;;;;;2.48;72.37;99778.23;1798692;79;21621;-69
2022/01/10 00:37:26;;;;;;;36.28;20.55;;;;;;;2.45;72.43;99781.31;1776512;79;20933;-69
2022/01/10 00:39:53;;;;;;;35.23;20.50;;;;;;;2.47;72.55;99784.54;1798679;79;21011;-70
2022/01/10 00:42:20;;;;;;;37.05;21.25;;;;;;;2.48;72.57;99782.19;1798658;79;20984;-69
2022/01/10 00:44:51;;;;;;;34.95;21.97;;;;;;;2.49;72.54;99785.11;1798685;79;21046;-70
2022/01/10 00:47:16;;;;;;;36.42;22.62;;;;;;;2.53;72.66;99783.66;1798468;79;21544;-70
2022/01/10 00:49:44;;;;;;;35.70;20.52;;;;;;;2.55;72.59;99793.44;1798605;79;20968;-69
2022/01/10 00:52:10;;;;;;;32.80;19.92;;;;;;;2.53;72.52;99797.32;1798662;79;20984;-69
2022/01/10 00:54:38;;;;;;;35.43;21.45;;;;;;;2.45;72.55;99798.96;1798996;79;20972;-69
2022/01/10 00:57:05;;;;;;;36.10;21.30;;;;;;;2.41;72.63;99793.84;1798631;79;21482;-70
2022/01/10 00:59:32;;;;;;;33.45;20.70;;;;;;;2.39;72.69;99795.89;1798826;79;21100;-69
2022/01/10 01:01:59;;;;;;;36.60;20.15;;;;;;;2.34;72.72;99791.30;1797133;79;21577;-70
2022/01/10 01:04:26;;;;;;;38.83;22.45;;;;;;;2.28;72.78;99790.86;1798745;79;21170;-69
2022/01/10 01:06:53;;;;;;;37.33;22.05;;;;;;;2.21;72.81;99791.45;1798701;79;20996;-70
2022/01/10 01:09:25;;;;;;;33.42;21.55;;;;;;;2.18;72.96;99796.65;1798555;79;21205;-69
2022/01/10 01:14:52;;;;;;;37.95;22.55;;;;;;;2.17;73.18;99805.55;1798677;79;21479;-70
2022/01/10 01:17:11;;;;;;;35.83;21.35;;;;;;;2.18;73.21;99803.75;1794928;79;20992;-69
2022/01/10 01:25:12;;;;;;;35.88;20.68;;;;;;;2.11;73.37;99805.94;1689988;82;21540;-69
2022/01/10 01:27:40;;;;;;;33.53;20.50;;;;;;;2.03;73.49;99803.58;1728659;82;21028;-68
2022/01/10 01:30:08;;;;;;;34.10;20.97;;;;;;;1.92;73.72;99803.00;1736098;81;21098;-69
2022/01/10 01:32:35;;;;;;;32.90;19.37;;;;;;;1.85;73.97;99803.59;1774439;80;21039;-69
2022/01/10 01:35:06;;;;;;;32.60;20.65;;;;;;;1.81;74.23;99810.29;1763859;81;21015;-68
2022/01/10 01:37:31;;;;;;;36.53;22.98;;;;;;;1.74;74.40;99811.67;1801238;79;21788;-69
2022/01/10 01:39:58;;;;;;;32.20;19.15;;;;;;;1.74;74.57;99801.14;1791884;80;21485;-69
2022/01/10 01:42:37;;;;;;;33.28;19.23;;;;;;;1.77;74.79;99798.59;1792109;79;20977;-69
2022/01/10 01:45:06;;;;;;;34.18;20.92;;;;;;;1.77;74.89;99812.55;1791977;79;21594;-69
2022/01/10 01:47:32;;;;;;;35.35;21.93;;;;;;;1.77;75.03;99810.44;1791996;80;20936;-68
2022/01/10 01:49:59;;;;;;;33.42;19.45;;;;;;;1.80;75.15;99816.07;1792064;79;22132;-69
2022/01/10 01:52:27;;;;;;;33.70;21.40;;;;;;;1.80;75.20;99810.01;1760969;80;21059;-69
2022/01/10 01:54:54;;;;;;;34.73;22.35;;;;;;;1.79;75.26;99815.79;1776152;80;20983;-69
2022/01/10 01:57:20;;;;;;;30.57;19.27;;;;;;;1.78;75.34;99822.09;1776027;80;21082;-69
2022/01/10 01:59:48;;;;;;;31.23;19.40;;;;;;;1.80;75.43;99825.80;1776134;80;20952;-69
2022/01/10 02:02:15;;;;;;;32.67;20.15;;;;;;;1.80;75.47;99827.13;1754303;80;21142;-69
2022/01/10 02:04:41;;;;;;;30.27;18.75;;;;;;;1.80;75.54;99835.02;1777218;80;21063;-69
2022/01/10 02:07:08;;;;;;;32.67;19.85;;;;;;;1.83;75.54;99831.95;1776968;80;21047;-69
2022/01/10 02:09:36;;;;;;;28.12;17.23;;;;;;;1.87;75.53;99838.39;1776836;80;21542;-70
2022/01/10 02:12:05;;;;;;;31.23;19.17;;;;;;;1.90;75.44;99836.64;1777029;80;20976;-69
2022/01/10 02:14:33;;;;;;;28.05;18.02;;;;;;;1.92;75.42;99835.92;1776225;80;21203;-69
2022/01/10 02:17:05;;;;;;;25.57;17.50;;;;;;;1.93;75.29;99836.21;1775984;80;21028;-69
2022/01/10 02:19:58;;;;;;;23.80;16.57;;;;;;;1.95;75.20;99842.08;1776645;80;20951;-69
2022/01/10 02:22:28;;;;;;;25.32;16.70;;;;;;;1.96;75.17;99842.88;1771948;79;20959;-69
2022/01/10 02:25:13;;;;;;;22.13;15.13;;;;;;;1.96;75.08;99847.63;1772045;81;21007;-68
2022/01/10 02:27:40;;;;;;;19.77;13.70;;;;;;;1.89;74.79;99844.26;1750308;81;21542;-69
2022/01/10 02:33:26;;;;;;;17.00;12.07;;;;;;;1.88;74.81;99838.70;1752099;79;20996;-69
2022/01/10 02:38:39;;;;;;;16.90;11.33;;;;;;;1.90;74.45;99851.13;1788228;79;21070;-70
2022/01/10 02:41:05;;;;;;;16.00;11.08;;;;;;;1.86;74.23;99843.38;1749761;81;21538;-68
2022/01/10 02:43:32;;;;;;;15.63;10.85;;;;;;;1.81;74.13;99851.94;1772334;80;20975;-69
2022/01/10 02:45:58;;;;;;;16.30;10.85;;;;;;;1.80;74.04;99862.66;1772173;81;20951;-69
2022/01/10 02:48:25;;;;;;;16.07;10.98;;;;;;;1.78;74.03;99866.05;1772091;81;21003;-69
2022/01/10 02:50:51;;;;;;;12.43;9.80;;;;;;;1.80;73.98;99873.20;1772182;81;21525;-70
2022/01/10 02:53:19;;;;;;;15.63;11.20;;;;;;;1.80;73.81;99865.30;1752097;80;21267;-69
2022/01/10 02:55:45;;;;;;;17.95;12.58;;;;;;;1.77;73.75;99886.28;1776439;80;21470;-69
2022/01/10 02:58:13;;;;;;;17.60;12.03;;;;;;;1.76;73.79;99884.67;1798512;79;21007;-69
2022/01/10 03:00:39;;;;;;;17.07;11.83;;;;;;;1.80;73.86;99888.48;1798813;79;21020;-69
2022/01/10 03:03:07;;;;;;;15.80;12.15;;;;;;;1.80;73.74;99886.36;1798498;79;21055;-69
2022/01/10 03:05:34;;;;;;;16.87;11.90;;;;;;;1.81;73.76;99887.97;1798451;79;21953;-70
2022/01/10 03:08:03;;;;;;;17.57;11.73;;;;;;;1.83;73.72;99889.38;1776207;79;20988;-68
2022/01/10 03:10:30;;;;;;;15.88;11.78;;;;;;;1.85;73.67;99892.60;1798872;79;21000;-70
2022/01/10 03:13:00;;;;;;;16.02;11.83;;;;;;;1.86;73.63;99896.04;1798571;79;20905;-69
2022/01/10 03:15:27;;;;;;;15.13;10.70;;;;;;;1.88;73.62;99894.00;1798855;79;21067;-69
2022/01/10 03:17:54;;;;;;;13.70;10.32;;;;;;;1.91;73.57;99898.84;1798468;79;21536;-69
2022/01/10 03:20:23;;;;;;;14.47;10.40;;;;;;;1.86;73.30;99903.42;1798929;79;20989;-69
2022/01/10 03:22:51;;;;;;;12.85;9.50;;;;;;;1.81;73.18;99905.91;1824614;78;21079;-69
2022/01/10 03:25:19;;;;;;;13.75;10.08;;;;;;;1.76;73.06;99908.38;1831308;78;21571;-69
2022/01/10 03:27:47;;;;;;;14.33;10.13;;;;;;;1.75;73.01;99905.97;1831435;78;21515;-69
2022/01/10 03:30:19;;;;;;;15.00;10.28;;;;;;;1.73;72.98;99915.38;1831548;78;21132;-69
2022/01/10 03:32:45;;;;;;;13.13;9.73;;;;;;;1.72;72.95;99916.92;1830826;78;20976;-69
2022/01/10 03:35:14;;;;;;;15.78;11.20;;;;;;;1.69;72.93;99912.89;1830562;78;21057;-69
2022/01/10 03:37:41;;;;;;;14.00;9.93;;;;;;;1.70;72.92;99921.59;1831382;77;21515;-69
2022/01/10 03:40:08;;;;;;;14.30;10.20;;;;;;;1.70;72.88;99928.17;1831511;78;20984;-70
2022/01/10 03:42:35;;;;;;;13.20;9.65;;;;;;;1.65;72.83;99935.41;1831319;78;22007;-68
2022/01/10 03:45:04;;;;;;;14.23;9.98;;;;;;;1.63;72.76;99939.55;1831343;78;21503;-69
2022/01/10 03:47:30;;;;;;;16.17;10.82;;;;;;;1.60;72.72;99933.91;1831569;78;20936;-69
2022/01/10 03:49:56;;;;;;;14.70;10.03;;;;;;;1.58;72.74;99936.77;1831397;78;20964;-70
2022/01/10 03:52:23;;;;;;;14.60;10.45;;;;;;;1.61;72.74;99944.72;1831673;78;20936;-70
2022/01/10 03:54:50;;;;;;;15.10;10.45;;;;;;;1.60;72.64;99942.60;1831451;78;21108;-70
2022/01/10 03:57:17;;;;;;;14.30;10.25;;;;;;;1.57;72.56;99939.08;1831250;77;20942;-69
2022/01/10 03:59:43;;;;;;;14.70;9.98;;;;;;;1.57;72.44;99950.13;1831583;77;20941;-68
2022/01/10 04:02:10;;;;;;;16.37;11.48;;;;;;;1.55;72.36;99946.91;1831454;78;21498;-69
2022/01/10 04:04:38;;;;;;;14.15;10.05;;;;;;;1.48;72.30;99950.91;1831495;77;21814;-69
2022/01/10 04:07:05;;;;;;;16.20;11.40;;;;;;;1.45;72.35;99958.39;1804189;78;21466;-69
2022/01/10 04:09:32;;;;;;;15.05;10.50;;;;;;;1.39;72.41;99955.60;1798551;79;21555;-69
2022/01/10 04:11:58;;;;;;;16.80;11.45;;;;;;;1.39;72.48;99959.55;1798965;79;21039;-69
2022/01/10 04:14:27;;;;;;;16.30;10.90;;;;;;;1.38;72.53;99957.11;1798392;79;20957;-69
2022/01/10 04:16:56;;;;;;;17.75;12.53;;;;;;;1.40;72.57;99963.78;1798686;79;21086;-69
2022/01/10 04:19:22;;;;;;;16.73;11.95;;;;;;;1.40;72.59;99966.41;1798750;79;21126;-69
2022/01/10 04:21:49;;;;;;;18.67;13.00;;;;;;;1.42;72.63;99966.22;1797240;78;21704;-69
2022/01/10 04:24:15;;;;;;;18.27;12.30;;;;;;;1.43;72.61;99966.51;1797197;79;21440;-69
2022/01/10 04:26:42;;;;;;;19.10;12.78;;;;;;;1.47;72.62;99968.20;1797201;79;21024;-69
2022/01/10 04:29:09;;;;;;;17.23;11.97;;;;;;;1.50;72.56;99966.47;1796984;79;21493;-70
2022/01/10 04:31:36;;;;;;;18.75;12.13;;;;;;;1.52;72.52;99975.77;1774721;79;22015;-70
2022/01/10 04:34:03;;;;;;;20.65;12.98;;;;;;;1.54;72.51;99976.35;1796969;79;21173;-70
2022/01/10 04:36:30;;;;;;;17.12;11.35;;;;;;;1.58;72.44;99980.20;1797025;79;21052;-68
2022/01/10 04:38:57;;;;;;;18.62;12.55;;;;;;;1.59;72.35;99987.06;1797023;79;20949;-69
2022/01/10 04:41:25;;;;;;;17.73;11.80;;;;;;;1.62;72.29;99984.02;1796989;79;21047;-69
2022/01/10 04:43:52;;;;;;;19.17;12.78;;;;;;;1.66;72.26;99987.53;1796988;79;21468;-70
2022/01/10 04:46:18;;;;;;;18.40;11.93;;;;;;;1.71;72.19;99992.95;1796766;79;21059;-69
2022/01/10 04:48:45;;;;;;;17.73;12.50;;;;;;;1.73;72.11;99994.36;1796943;79;21591;-69
2022/01/10 04:51:13;;;;;;;19.20;13.50;;;;;;;1.76;72.03;99995.25;1796850;79;21519;-69
2022/01/10 04:53:50;;;;;;;18.87;12.78;;;;;;;1.79;71.94;100003.25;1796985;79;20964;-69
2022/01/10 04:56:18;;;;;;;20.15;13.65;;;;;;;1.80;71.80;100001.70;1796974;79;21534;-69
2022/01/10 04:58:47;;;;;;;17.42;12.20;;;;;;;1.82;71.71;100007.58;1796959;79;20945;-68
2022/01/10 05:01:14;;;;;;;19.87;13.32;;;;;;;1.83;71.64;100012.33;1797362;79;21578;-69
2022/01/10 05:03:41;;;;;;;17.70;12.70;;;;;;;1.83;71.58;100007.06;1796832;79;20965;-69
2022/01/10 05:06:07;;;;;;;18.42;13.25;;;;;;;1.86;71.53;100014.53;1796515;79;20995;-69
2022/01/10 05:08:34;;;;;;;20.27;13.80;;;;;;;1.90;71.49;100020.18;1798850;79;21102;-68
2022/01/10 05:11:01;;;;;;;19.55;13.72;;;;;;;1.91;71.43;100019.98;1797594;79;21034;-68
2022/01/10 05:13:28;;;;;;;19.57;13.75;;;;;;;1.93;71.33;100021.08;1798814;79;21056;-68
2022/01/10 05:15:55;;;;;;;21.23;14.00;;;;;;;1.92;71.29;100033.44;1798976;79;20956;-69
2022/01/10 05:18:22;;;;;;;23.10;15.38;;;;;;;1.94;71.19;100030.58;1793615;79;21031;-69
2022/01/10 05:20:50;;;;;;;22.17;14.60;;;;;;;1.93;71.17;100029.78;1798751;79;21881;-69
2022/01/10 05:23:17;;;;;;;22.55;16.20;;;;;;;1.94;71.13;100031.90;1798845;79;20933;-69
2022/01/10 05:25:46;;;;;;;25.50;17.77;;;;;;;1.95;71.12;100040.12;1802888;79;21098;-69
2022/01/10 05:28:17;;;;;;;27.40;17.62;;;;;;;1.96;71.04;100045.67;1803091;79;21038;-69
2022/01/10 05:30:43;;;;;;;27.65;18.52;;;;;;;1.94;71.01;100041.95;1775956;79;21130;-69
2022/01/10 05:33:10;;;;;;;28.50;18.70;;;;;;;1.95;70.99;100050.66;1798849;79;21034;-70
2022/01/10 05:35:44;;;;;;;27.37;17.50;;;;;;;1.95;70.99;100058.04;1799267;79;21090;-68
2022/01/10 05:38:11;;;;;;;28.60;18.02;;;;;;;1.93;70.96;100054.00;1798636;79;21036;-68
2022/01/10 05:40:38;;;;;;;27.65;18.32;;;;;;;1.96;70.98;100061.48;1798536;79;21062;-68
2022/01/10 05:43:04;;;;;;;27.32;17.37;;;;;;;1.95;70.98;100056.72;1802748;79;21054;-69
2022/01/10 05:45:31;;;;;;;22.48;15.40;;;;;;;1.95;70.92;100061.98;1798718;79;21506;-69
2022/01/10 05:48:06;;;;;;;21.70;15.03;;;;;;;1.94;70.87;100069.61;1798725;79;21570;-68
2022/01/10 05:50:34;;;;;;;19.82;13.45;;;;;;;1.90;70.82;100076.80;1798774;79;21000;-68
2022/01/10 05:53:00;;;;;;;19.73;13.68;;;;;;;1.85;70.86;100078.77;1798734;79;21547;-69
2022/01/10 05:55:27;;;;;;;18.52;12.98;;;;;;;1.81;70.95;100084.13;1776552;79;21086;-69
2022/01/10 05:57:54;;;;;;;19.07;13.38;;;;;;;1.82;70.99;100088.41;1799078;79;21479;-69
2022/01/10 06:00:23;;;;;;;19.23;13.58;;;;;;;1.83;71.01;100091.33;1798691;79;21468;-69
2022/01/10 06:02:49;;;;;;;20.10;13.85;;;;;;;1.83;70.99;100094.77;1798959;79;21056;-69
2022/01/10 06:05:20;;;;;;;20.97;14.43;;;;;;;1.86;71.01;100104.87;1799095;79;21047;-69
2022/01/10 06:07:49;;;;;;;18.25;12.25;;;;;;;1.89;71.01;100101.02;1798616;79;21062;-69
2022/01/10 06:10:15;;;;;;;20.75;13.90;;;;;;;1.85;70.93;100105.91;1798798;79;21500;-69
2022/01/10 06:12:42;;;;;;;21.17;13.45;;;;;;;1.78;70.92;100105.64;1798776;79;20992;-69
2022/01/10 06:15:10;;;;;;;20.30;14.43;;;;;;;1.76;70.98;100114.25;1798568;79;21031;-69
2022/01/10 06:17:39;;;;;;;22.48;15.65;;;;;;;1.73;71.08;100115.98;1799034;79;21467;-69
2022/01/10 06:20:06;;;;;;;22.62;15.35;;;;;;;1.75;71.16;100116.08;1798730;79;21007;-70
2022/01/10 06:22:33;;;;;;;19.10;14.13;;;;;;;1.79;71.22;100121.22;1798653;79;21057;-69
2022/01/10 06:25:01;;;;;;;18.67;13.43;;;;;;;1.86;71.26;100131.21;1798454;79;21071;-68
2022/01/10 06:27:29;;;;;;;19.75;13.68;;;;;;;1.92;71.21;100126.94;1798598;79;21034;-68
2022/01/10 06:29:56;;;;;;;20.12;14.78;;;;;;;1.99;71.22;100129.53;1798535;79;21444;-69
2022/01/10 06:32:22;;;;;;;19.62;14.73;;;;;;;2.06;71.17;100129.78;1798556;79;20975;-70
2022/01/10 06:34:50;;;;;;;19.73;13.85;;;;;;;2.09;71.01;100132.52;1798594;79;21474;-69
2022/01/10 06:37:19;;;;;;;21.50;14.45;;;;;;;2.13;70.91;100136.85;1798513;79;20960;-69
2022/01/10 06:39:45;;;;;;;19.80;12.85;;;;;;;2.14;70.79;100133.19;1798515;79;20992;-68
2022/01/10 06:42:13;;;;;;;19.05;13.65;;;;;;;2.16;70.70;100140.38;1802975;79;21617;-69
2022/01/10 06:44:40;;;;;;;19.02;14.43;;;;;;;2.15;70.56;100140.09;1798717;79;21023;-68
2022/01/10 06:47:09;;;;;;;20.15;14.18;;;;;;;2.13;70.49;100138.97;1798705;79;21093;-69
2022/01/10 06:49:38;;;;;;;19.10;13.58;;;;;;;2.14;70.46;100143.72;1798391;79;21003;-69
2022/01/10 06:52:17;;;;;;;19.90;14.10;;;;;;;2.15;70.40;100142.73;1798938;79;21043;-69
2022/01/10 06:55:07;;;;;;;19.80;13.55;;;;;;;2.17;70.37;100153.33;1798415;79;20964;-70
2022/01/10 06:57:34;;;;;;;20.97;14.65;;;;;;;2.18;70.27;100160.75;1790438;79;21016;-69
2022/01/10 07:00:03;;;;;;;19.17;13.45;;;;;;;2.17;70.21;100157.80;1797223;79;21118;-69
2022/01/10 07:02:33;;;;;;;20.65;13.60;;;;;;;2.17;70.18;100159.91;1799214;79;21131;-69
2022/01/10 07:04:59;;;;;;;21.25;13.38;;;;;;;2.21;70.13;100165.59;1798585;79;20946;-69
2022/01/10 07:07:26;;;;;;;20.88;14.55;;;;;;;2.22;70.11;100165.38;1798985;79;20978;-68
2022/01/10 07:09:55;;;;;;;18.45;13.90;;;;;;;2.26;70.11;100166.56;1798581;79;21010;-70
2022/01/10 07:12:21;;;;;;;19.37;13.48;;;;;;;2.30;70.00;100166.45;1797802;79;22668;-70
2022/01/10 07:14:59;;;;;;;18.60;13.80;;;;;;;2.33;69.83;100170.47;1745593;79;20932;-68
2022/01/10 07:17:25;;;;;;;20.65;14.58;;;;;;;2.33;69.76;100171.79;1772243;80;20968;-69
2022/01/10 07:19:53;;;;;;;19.40;13.95;;;;;;;2.35;69.56;100181.62;1775606;80;21031;-69
2022/01/10 07:22:21;;;;;;;20.27;14.95;;;;;;;2.34;69.39;100176.06;1755555;79;21016;-68
2022/01/10 07:24:48;;;;;;;19.75;14.53;;;;;;;2.31;69.27;100172.53;1771134;81;21125;-70
2022/01/10 07:27:15;;;;;;;18.57;13.80;;;;;;;2.27;69.03;100176.59;1770827;81;21024;-68
2022/01/10 07:29:42;;;;;;;19.15;13.95;;;;;;;2.20;68.98;100183.72;1766697;79;21514;-69
2022/01/10 07:32:08;;;;;;;20.65;14.28;;;;;;;2.18;68.98;100186.58;1771034;81;20984;-69
2022/01/10 07:34:36;;;;;;;20.72;14.07;;;;;;;2.17;68.95;100184.14;1771077;81;20988;-69
2022/01/10 07:37:03;;;;;;;23.20;15.58;;;;;;;2.15;68.96;100187.00;1771012;81;21136;-69
2022/01/10 07:39:30;;;;;;;20.65;14.33;;;;;;;2.16;68.98;100188.61;1770915;81;21111;-69
2022/01/10 07:41:58;;;;;;;20.32;14.35;;;;;;;2.19;68.97;100190.02;1770900;81;21126;-69
2022/01/10 07:44:27;;;;;;;20.97;14.13;;;;;;;2.21;68.82;100193.27;1770641;81;20953;-69
2022/01/10 07:46:55;;;;;;;20.57;14.50;;;;;;;2.21;68.78;100201.17;1770896;81;20991;-69
2022/01/10 07:49:21;;;;;;;18.73;14.38;;;;;;;2.21;68.74;100200.66;1770983;81;22145;-69
2022/01/10 07:51:48;;;;;;;21.70;14.38;;;;;;;2.23;68.71;100207.02;1771223;81;20953;-69
2022/01/10 07:54:14;;;;;;;20.55;13.30;;;;;;;2.27;68.69;100205.57;1770571;81;21079;-69
2022/01/10 07:56:41;;;;;;;24.87;15.48;;;;;;;2.30;68.59;100211.26;1769595;81;21016;-69
2022/01/10 07:59:07;;;;;;;19.57;13.85;;;;;;;2.30;68.47;100213.89;1769374;81;21424;-69
2022/01/10 08:01:33;;;;;;;25.08;14.68;;;;;;;2.31;68.34;100222.09;1769279;81;21510;-69
2022/01/10 08:04:00;;;;;;;23.55;15.23;;;;;;;2.30;68.29;100223.12;1769127;81;21056;-69
2022/01/10 08:06:26;;;;;;;22.73;15.32;;;;;;;2.30;68.17;100222.28;1769423;81;21063;-69
2022/01/10 08:08:53;;;;;;;21.75;15.23;;;;;;;2.30;68.14;100234.14;1769491;81;21039;-69
2022/01/10 08:11:19;;;;;;;22.87;15.63;;;;;;;2.31;68.10;100231.83;1769352;81;20952;-69
2022/01/10 08:13:46;;;;;;;21.95;14.30;;;;;;;2.31;67.97;100233.14;1769454;81;21544;-69
2022/01/10 08:16:12;;;;;;;24.15;15.80;;;;;;;2.30;67.74;100235.45;1769221;81;21055;-69
2022/01/10 08:18:38;;;;;;;24.95;16.17;;;;;;;2.29;67.79;100243.87;1769622;81;21087;-69
2022/01/10 08:21:06;;;;;;;21.75;14.03;;;;;;;2.31;67.82;100241.05;1769168;81;20961;-69
2022/01/10 08:23:33;;;;;;;22.73;15.20;;;;;;;2.37;67.76;100242.84;1770949;81;21506;-69
2022/01/10 08:25:59;;;;;;;24.00;15.88;;;;;;;2.37;67.73;100244.16;1771017;81;21662;-69
2022/01/10 08:28:25;;;;;;;26.68;17.62;;;;;;;2.41;67.79;100242.72;1771219;81;21408;-70
2022/01/10 08:30:52;;;;;;;25.52;17.40;;;;;;;2.43;67.77;100247.77;1770921;81;21511;-69
2022/01/10 08:33:19;;;;;;;24.20;16.90;;;;;;;2.47;67.74;100245.84;1771027;81;21024;-69
2022/01/10 08:35:45;;;;;;;24.35;16.17;;;;;;;2.55;67.78;100242.94;1770981;81;21047;-69
2022/01/10 08:38:12;;;;;;;20.02;13.68;;;;;;;2.62;67.70;100250.00;1771137;81;21955;-69
2022/01/10 08:40:39;;;;;;;21.00;14.87;;;;;;;2.61;66.94;100240.48;1770848;81;20944;-69
2022/01/10 08:43:10;;;;;;;22.37;15.55;;;;;;;2.59;66.96;100244.13;1770928;81;20968;-69
2022/01/10 08:45:34;;;;;;;25.17;16.95;;;;;;;2.59;66.82;100241.48;1770691;81;21444;-70
2022/01/10 08:48:01;;;;;;;25.20;16.77;;;;;;;2.57;66.86;100238.27;1770705;81;21103;-70
2022/01/10 08:50:27;;;;;;;24.23;16.55;;;;;;;2.56;66.89;100248.50;1769126;81;21063;-69
2022/01/10 08:52:53;;;;;;;23.55;16.77;;;;;;;2.59;66.98;100248.08;1766720;80;21503;-69
2022/01/10 08:55:20;;;;;;;24.02;16.55;;;;;;;2.65;66.99;100257.48;1732629;82;21531;-70
2022/01/10 08:57:48;;;;;;;25.48;16.32;;;;;;;2.66;66.95;100257.27;1732027;82;38949;-68
2022/01/10 09:00:15;;;;;;;22.15;15.50;;;;;;;2.70;66.87;100262.92;1730931;82;20986;-69
2022/01/10 09:02:41;;;;;;;22.37;15.53;;;;;;;2.73;66.78;100254.11;1732443;82;22141;-70
2022/01/10 09:05:09;;;;;;;16.42;11.35;;;;;;;2.74;66.50;100258.86;1730506;81;21060;-69
2022/01/10 09:07:36;;;;;;;16.00;11.12;;;;;;;2.70;65.71;100261.60;1729884;83;21020;-70
2022/01/10 09:10:04;;;;;;;15.20;9.93;;;;;;;2.62;65.28;100265.83;1729735;83;20981;-69
2022/01/10 09:12:32;;;;;;;15.45;10.15;;;;;;;2.49;64.84;100260.91;1730285;83;21507;-70
2022/01/10 09:14:59;;;;;;;15.88;10.05;;;;;;;2.41;64.72;100263.00;1731539;81;21039;-70
2022/01/10 09:17:26;;;;;;;14.33;9.40;;;;;;;2.35;64.53;100262.81;1766958;81;21432;-69
2022/01/10 09:19:52;;;;;;;14.10;9.80;;;;;;;2.29;64.25;100271.55;1772493;81;21506;-70
2022/01/10 09:22:19;;;;;;;15.98;10.18;;;;;;;2.24;63.98;100277.17;1772369;81;20963;-70
2022/01/10 09:24:46;;;;;;;14.00;10.43;;;;;;;2.16;63.63;100279.51;1771678;81;21030;-70
2022/01/10 09:27:16;;;;;;;14.98;9.55;;;;;;;2.06;63.61;100278.63;1772562;80;21074;-69
2022/01/10 09:29:44;;;;;;;13.32;9.03;;;;;;;2.03;63.67;100281.67;1772116;80;20995;-71
2022/01/10 09:32:10;;;;;;;13.62;9.48;;;;;;;2.02;63.73;100274.80;1772435;81;21055;-67
2022/01/10 09:34:37;;;;;;;13.38;9.63;;;;;;;2.01;63.79;100281.09;1772293;81;21007;-70
2022/01/10 09:37:04;;;;;;;15.58;10.82;;;;;;;1.98;63.82;100280.19;1772618;80;21030;-69
2022/01/10 09:39:30;;;;;;;14.85;10.43;;;;;;;1.97;63.96;100290.91;1772288;81;21519;-70
2022/01/10 09:41:57;;;;;;;14.63;10.75;;;;;;;1.95;64.12;100285.06;1772183;81;20959;-70
2022/01/10 09:44:24;;;;;;;13.93;9.45;;;;;;;1.97;64.27;100290.91;1772685;80;20940;-71
2022/01/10 09:46:53;;;;;;;14.05;10.03;;;;;;;1.96;64.01;100290.11;1772155;80;20990;-70
2022/01/10 09:49:20;;;;;;;15.58;10.68;;;;;;;1.93;63.87;100296.30;1772455;81;21569;-70
2022/01/10 09:51:47;;;;;;;14.47;9.83;;;;;;;1.88;63.86;100288.52;1772231;80;21796;-70
2022/01/10 09:54:13;;;;;;;15.20;9.60;;;;;;;1.86;63.86;100295.00;1772337;81;21117;-70
2022/01/10 09:56:40;;;;;;;13.43;9.40;;;;;;;1.82;63.89;100294.61;1772144;81;20939;-70
2022/01/10 09:59:07;;;;;;;14.68;10.50;;;;;;;1.78;63.69;100301.81;1772302;81;21046;-70
2022/01/10 10:01:34;;;;;;;16.42;10.03;;;;;;;1.78;63.85;100305.25;1772135;80;21089;-70
2022/01/10 10:04:01;;;;;;;14.43;9.88;;;;;;;1.81;63.90;100305.33;1772326;81;21518;-70
2022/01/10 10:06:30;;;;;;;11.80;8.20;;;;;;;1.82;63.95;100303.82;1772268;80;21050;-70
2022/01/10 10:09:03;;;;;;;13.30;9.20;;;;;;;1.82;63.58;100313.03;1772407;81;21486;-70
2022/01/10 10:11:50;;;;;;;13.40;8.33;;;;;;;1.80;63.54;100312.94;1772233;81;21027;-70
2022/01/10 10:14:21;;;;;;;12.18;8.05;;;;;;;1.80;63.62;100307.67;1772272;80;21110;-69
2022/01/10 10:16:49;;;;;;;13.38;8.53;;;;;;;1.81;63.61;100309.27;1771507;81;21813;-70
2022/01/10 10:19:23;;;;;;;12.95;8.53;;;;;;;1.81;63.48;100310.59;1775455;79;20975;-69
2022/01/10 10:21:50;;;;;;;15.32;10.10;;;;;;;1.81;63.49;100318.49;1779790;79;21074;-70
2022/01/10 10:24:18;;;;;;;16.15;10.30;;;;;;;1.80;63.42;100320.32;1771589;80;20971;-69
2022/01/10 10:26:44;;;;;;;17.02;11.00;;;;;;;1.75;63.53;100315.39;1772629;80;20971;-70
2022/01/10 10:29:13;;;;;;;15.32;10.90;;;;;;;1.73;63.69;100314.77;1771402;80;21126;-70
2022/01/10 10:31:52;;;;;;;16.55;11.10;;;;;;;1.73;63.81;100313.45;1772478;80;20971;-70
2022/01/10 10:34:22;;;;;;;19.42;12.98;;;;;;;1.69;63.96;100314.89;1772283;80;21439;-68
2022/01/10 10:37:11;;;;;;;20.05;12.93;;;;;;;1.63;64.29;100315.99;1771877;80;21019;-69
2022/01/10 10:39:41;;;;;;;21.27;13.32;;;;;;;1.60;64.58;100331.38;1772362;80;21546;-69
2022/01/10 10:42:11;;;;;;;21.23;14.03;;;;;;;1.49;65.00;100322.28;1771486;80;21129;-69
2022/01/10 10:44:39;;;;;;;19.15;13.58;;;;;;;1.39;65.25;100337.67;1771860;80;20975;-69
2022/01/10 10:47:07;;;;;;;20.23;13.60;;;;;;;1.30;65.42;100339.68;1772252;80;21451;-69
2022/01/10 10:49:38;;;;;;;18.60;12.37;;;;;;;1.22;65.56;100344.31;1772310;80;21565;-69
2022/01/10 10:52:08;;;;;;;16.60;11.45;;;;;;;1.16;65.67;100355.96;1770443;80;21046;-70
2022/01/10 10:54:34;;;;;;;14.73;10.45;;;;;;;1.15;65.60;100352.20;1772767;81;21713;-69
2022/01/10 10:57:05;;;;;;;19.15;11.90;;;;;;;1.10;65.63;100359.89;1772132;80;20979;-69
2022/01/10 10:59:35;;;;;;;18.48;12.53;;;;;;;1.07;65.63;100362.41;1771023;80;21207;-69
2022/01/10 11:02:03;;;;;;;19.10;13.08;;;;;;;1.06;65.71;100365.26;1772216;80;21015;-69
2022/01/10 11:04:32;;;;;;;19.90;12.65;;;;;;;1.04;65.73;100361.49;1772555;80;21027;-69
2022/01/10 11:06:58;;;;;;;19.73;12.35;;;;;;;1.05;65.73;100368.87;1771585;80;21021;-70
2022/01/10 11:09:26;;;;;;;18.27;11.75;;;;;;;1.02;65.67;100374.53;1772152;81;21042;-70
2022/01/10 11:11:53;;;;;;;17.82;12.37;;;;;;;0.97;65.60;100381.71;1772158;80;21054;-70
2022/01/10 11:14:24;;;;;;;16.87;11.28;;;;;;;0.88;65.57;100385.02;1771938;80;21046;-69
2022/01/10 11:16:52;;;;;;;19.07;13.10;;;;;;;0.84;65.75;100397.45;1751415;81;20986;-69
2022/01/10 11:19:21;;;;;;;18.75;13.13;;;;;;;0.80;65.82;100393.59;1772307;80;21118;-69
2022/01/10 11:22:06;;;;;;;20.25;13.43;;;;;;;0.80;65.93;100394.91;1803681;79;21085;-70
2022/01/10 11:24:53;;;;;;;20.97;13.65;;;;;;;0.80;66.03;100397.03;1803990;79;20999;-69
2022/01/10 11:27:41;;;;;;;20.90;13.62;;;;;;;0.81;66.01;100394.70;1803996;79;20948;-69
2022/01/10 11:30:34;;;;;;;20.77;13.65;;;;;;;0.84;66.09;100402.70;1783325;79;20998;-69
2022/01/10 11:33:17;;;;;;;19.30;12.40;;;;;;;0.87;66.16;100397.86;1810103;78;21796;-69
2022/01/10 11:35:59;;;;;;;18.32;12.37;;;;;;;0.87;66.11;100413.64;1801647;79;21530;-69
2022/01/10 11:38:48;;;;;;;17.97;11.43;;;;;;;0.78;65.89;100404.30;1797308;79;21162;-69
2022/01/10 11:44:32;;;;;;;16.75;11.90;;;;;;;0.70;65.68;100408.42;1737722;82;21695;-70